This is the latest recevied weather packets stored in our database for station/object N2XP-3. If no packets are shown the sender has not sent any weather packets the latest 10 day(s).
| Time | Temp. | Humidity | Pressure | Rain* | Wind** | Luminosity | Snow |
|---|---|---|---|---|---|---|---|
| 1777755596 | 16.11° C | 39% | 1007.6 hPa | 0 mm | 1.34 m/s, 14° | - | - |
| 1777755508 | 16.11° C | 39% | 1007.6 hPa | 0 mm | 1.34 m/s, 14° | - | - |
| 1777755209 | 16.11° C | 40% | 1007.5 hPa | 0 mm | 0 m/s | - | - |
| 1777754910 | 16.11° C | 39% | 1007.5 hPa | 0 mm | 0 m/s | - | - |
| 1777754605 | 16.11° C | 39% | 1007.6 hPa | 0 mm | 1.34 m/s, 156° | - | - |
| 1777754306 | 15.56° C | 40% | 1007.6 hPa | 0 mm | 0.89 m/s, 322° | - | - |
| 1777754006 | 15.56° C | 39% | 1007.6 hPa | 0 mm | 2.68 m/s, 60° | - | - |
| 1777753700 | 16.11° C | 39% | 1007.7 hPa | 0 mm | 0.89 m/s, 39° | - | - |
| 1777753398 | 16.11° C | 40% | 1007.7 hPa | 0 mm | 1.34 m/s, 7° | - | - |
| 1777753099 | 16.11° C | 41% | 1007.6 hPa | 0 mm | 1.34 m/s, 203° | - | - |
| 1777752793 | 16.11° C | 39% | 1007.7 hPa | 0 mm | 2.24 m/s, 73° | - | - |
| 1777752494 | 16.67° C | 38% | 1007.7 hPa | 0 mm | 3.13 m/s, 75° | - | - |
| 1777752194 | 17.22° C | 39% | 1007.7 hPa | 0 mm | 0.45 m/s, 169° | - | - |
| 1777751891 | 16.67° C | 41% | 1007.8 hPa | 0 mm | 1.34 m/s, 65° | - | - |
| 1777751590 | 16.67° C | 40% | 1007.8 hPa | 0 mm | 0 m/s | - | - |
| 1777750987 | 16.67° C | 39% | 1007.9 hPa | 0 mm | 2.24 m/s, 3° | - | - |
| 1777750688 | 16.67° C | 41% | 1008 hPa | 0 mm | 0 m/s | - | - |
| 1777750418 | 16.67° C | 40% | 1008.1 hPa | 0 mm | 0 m/s | - | - |
| 1777750385 | 16.67° C | 40% | 1008.1 hPa | 0 mm | 0 m/s | - | - |
| 1777750084 | 16.67° C | 40% | 1008.2 hPa | 0 mm | 1.34 m/s, 138° | - | - |
| 1777749783 | 17.22° C | 40% | 1008.2 hPa | 0 mm | 1.34 m/s, 226° | - | - |
| 1777749477 | 17.22° C | 39% | 1008.4 hPa | 0 mm | 2.24 m/s, 187° | - | - |
| 1777749173 | 17.22° C | 40% | 1008.4 hPa | 0 mm | 1.34 m/s, 308° | - | - |
| 1777748874 | 17.22° C | 40% | 1008.5 hPa | 0 mm | 1.34 m/s, 266° | - | - |
| 1777748572 | 17.22° C | 40% | 1008.6 hPa | 0 mm | 1.79 m/s, 63° | - | - |
* Rain latest hour (hover to see other rain measurements)
** Current wind speed in m/s (hover to see current wind gust speed)